sensor_id;sensor_type;location;lat;lon;timestamp;pressure;altitude;pressure_sealevel;temperature;humidity
50430;BME280;36359;41.556;-8.418;2023-12-20T00:01:05;61429.38;;;8.75;100.00
50430;BME280;36359;41.556;-8.418;2023-12-20T00:03:31;61431.53;;;8.75;100.00
50430;BME280;36359;41.556;-8.418;2023-12-20T00:05:56;61430.44;;;8.76;100.00
50430;BME280;36359;41.556;-8.418;2023-12-20T00:08:22;61417.16;;;8.61;100.00
50430;BME280;36359;41.556;-8.418;2023-12-20T00:10:48;61407.03;;;8.56;100.00
50430;BME280;36359;41.556;-8.418;2023-12-20T00:13:13;61405.44;;;8.55;100.00
50430;BME280;36359;41.556;-8.418;2023-12-20T00:15:39;61405.97;;;8.55;100.00
50430;BME280;36359;41.556;-8.418;2023-12-20T00:18:05;61411.84;;;8.56;100.00
50430;BME280;36359;41.556;-8.418;2023-12-20T00:20:31;61403.28;;;8.53;100.00
50430;BME280;36359;41.556;-8.418;2023-12-20T00:22:57;61405.97;;;8.53;100.00
50430;BME280;36359;41.556;-8.418;2023-12-20T00:25:26;61419.28;;;8.66;100.00
50430;BME280;36359;41.556;-8.418;2023-12-20T00:27:52;61436.28;;;8.82;100.00
50430;BME280;36359;41.556;-8.418;2023-12-20T00:30:18;61433.63;;;8.82;100.00
50430;BME280;36359;41.556;-8.418;2023-12-20T00:32:44;61446.41;;;8.92;100.00
50430;BME280;36359;41.556;-8.418;2023-12-20T00:35:13;61435.25;;;8.81;100.00
50430;BME280;36359;41.556;-8.418;2023-12-20T00:37:39;61438.44;;;8.81;100.00
50430;BME280;36359;41.556;-8.418;2023-12-20T00:40:05;61419.28;;;8.68;100.00
50430;BME280;36359;41.556;-8.418;2023-12-20T00:42:31;61429.38;;;8.78;100.00
50430;BME280;36359;41.556;-8.418;2023-12-20T00:44:58;61445.34;;;8.91;100.00
50430;BME280;36359;41.556;-8.418;2023-12-20T00:47:24;61435.22;;;8.83;100.00
50430;BME280;36359;41.556;-8.418;2023-12-20T00:49:50;61444.84;;;8.87;100.00
50430;BME280;36359;41.556;-8.418;2023-12-20T00:52:15;61446.97;;;8.90;100.00
50430;BME280;36359;41.556;-8.418;2023-12-20T00:54:43;61444.84;;;8.85;100.00
50430;BME280;36359;41.556;-8.418;2023-12-20T00:57:09;61445.84;;;8.94;100.00
50430;BME280;36359;41.556;-8.418;2023-12-20T00:59:35;61464.00;;;9.06;100.00
50430;BME280;36359;41.556;-8.418;2023-12-20T01:02:01;61449.03;;;8.97;100.00
50430;BME280;36359;41.556;-8.418;2023-12-20T01:04:26;61448.00;;;8.93;100.00
50430;BME280;36359;41.556;-8.418;2023-12-20T01:06:52;61438.94;;;8.87;100.00
50430;BME280;36359;41.556;-8.418;2023-12-20T01:09:19;61453.88;;;8.99;100.00
50430;BME280;36359;41.556;-8.418;2023-12-20T01:11:44;61457.06;;;9.02;100.00
50430;BME280;36359;41.556;-8.418;2023-12-20T01:14:12;61452.25;;;9.00;100.00
50430;BME280;36359;41.556;-8.418;2023-12-20T01:16:37;61448.53;;;8.96;100.00
50430;BME280;36359;41.556;-8.418;2023-12-20T01:19:03;61458.13;;;9.03;100.00
50430;BME280;36359;41.556;-8.418;2023-12-20T01:21:29;61474.56;;;9.26;100.00
50430;BME280;36359;41.556;-8.418;2023-12-20T01:23:55;61489.53;;;9.33;100.00
50430;BME280;36359;41.556;-8.418;2023-12-20T01:26:20;61487.41;;;9.28;100.00
50430;BME280;36359;41.556;-8.418;2023-12-20T01:28:46;61492.72;;;9.39;100.00
50430;BME280;36359;41.556;-8.418;2023-12-20T01:31:12;61495.94;;;9.37;100.00
50430;BME280;36359;41.556;-8.418;2023-12-20T01:33:37;61482.59;;;9.26;100.00
50430;BME280;36359;41.556;-8.418;2023-12-20T01:36:04;61484.22;;;9.25;100.00
50430;BME280;36359;41.556;-8.418;2023-12-20T01:38:30;61503.34;;;9.46;100.00
50430;BME280;36359;41.556;-8.418;2023-12-20T01:40:55;61516.16;;;9.56;100.00
50430;BME280;36359;41.556;-8.418;2023-12-20T01:43:21;61503.34;;;9.49;100.00
50430;BME280;36359;41.556;-8.418;2023-12-20T01:45:47;61507.63;;;9.53;100.00
50430;BME280;36359;41.556;-8.418;2023-12-20T01:48:15;61511.34;;;9.57;100.00
50430;BME280;36359;41.556;-8.418;2023-12-20T01:50:42;61533.69;;;9.78;100.00
50430;BME280;36359;41.556;-8.418;2023-12-20T01:53:09;61474.63;;;9.19;100.00
50430;BME280;36359;41.556;-8.418;2023-12-20T01:55:39;61477.28;;;9.21;100.00
50430;BME280;36359;41.556;-8.418;2023-12-20T01:58:07;61461.31;;;9.06;100.00
50430;BME280;36359;41.556;-8.418;2023-12-20T02:00:34;61458.06;;;9.08;100.00
50430;BME280;36359;41.556;-8.418;2023-12-20T02:03:01;61431.53;;;8.75;100.00
50430;BME280;36359;41.556;-8.418;2023-12-20T02:05:30;61438.97;;;8.84;100.00
50430;BME280;36359;41.556;-8.418;2023-12-20T02:07:56;61434.16;;;8.82;100.00
50430;BME280;36359;41.556;-8.418;2023-12-20T02:10:23;61431.00;;;8.74;100.00
50430;BME280;36359;41.556;-8.418;2023-12-20T02:12:49;61425.13;;;8.71;100.00
50430;BME280;36359;41.556;-8.418;2023-12-20T02:15:15;61440.06;;;8.83;100.00
50430;BME280;36359;41.556;-8.418;2023-12-20T02:17:41;61483.16;;;9.27;100.00
50430;BME280;36359;41.556;-8.418;2023-12-20T02:20:07;61467.66;;;9.17;100.00
50430;BME280;36359;41.556;-8.418;2023-12-20T02:22:32;61485.81;;;9.29;100.00
50430;BME280;36359;41.556;-8.418;2023-12-20T02:24:58;61478.34;;;9.22;100.00
50430;BME280;36359;41.556;-8.418;2023-12-20T02:27:24;61502.28;;;9.48;100.00
50430;BME280;36359;41.556;-8.418;2023-12-20T02:29:50;61527.84;;;9.70;100.00
50430;BME280;36359;41.556;-8.418;2023-12-20T02:32:20;61518.25;;;9.63;100.00
50430;BME280;36359;41.556;-8.418;2023-12-20T02:34:49;61535.84;;;9.77;100.00
50430;BME280;36359;41.556;-8.418;2023-12-20T02:37:15;61522.00;;;9.64;100.00
50430;BME280;36359;41.556;-8.418;2023-12-20T02:39:41;61500.69;;;9.46;100.00
50430;BME280;36359;41.556;-8.418;2023-12-20T02:42:07;61495.38;;;9.39;100.00
50430;BME280;36359;41.556;-8.418;2023-12-20T02:44:32;61486.34;;;9.30;100.00
50430;BME280;36359;41.556;-8.418;2023-12-20T02:46:58;61488.97;;;9.35;100.00
50430;BME280;36359;41.556;-8.418;2023-12-20T02:49:24;61485.78;;;9.32;100.00
50430;BME280;36359;41.556;-8.418;2023-12-20T02:51:49;61486.31;;;9.32;100.00
50430;BME280;36359;41.556;-8.418;2023-12-20T02:54:15;61487.91;;;9.31;100.00
50430;BME280;36359;41.556;-8.418;2023-12-20T02:56:41;61465.56;;;9.10;100.00
50430;BME280;36359;41.556;-8.418;2023-12-20T02:59:07;61456.50;;;9.04;100.00
50430;BME280;36359;41.556;-8.418;2023-12-20T03:01:34;61448.03;;;8.91;100.00
50430;BME280;36359;41.556;-8.418;2023-12-20T03:04:00;61451.19;;;8.99;100.00
50430;BME280;36359;41.556;-8.418;2023-12-20T03:06:26;61462.38;;;9.07;100.00
50430;BME280;36359;41.556;-8.418;2023-12-20T03:08:52;61462.91;;;9.10;100.00
50430;BME280;36359;41.556;-8.418;2023-12-20T03:11:18;61447.47;;;8.93;100.00
50430;BME280;36359;41.556;-8.418;2023-12-20T03:13:44;61461.28;;;9.08;100.00
50430;BME280;36359;41.556;-8.418;2023-12-20T03:16:10;61453.84;;;9.01;100.00
50430;BME280;36359;41.556;-8.418;2023-12-20T03:18:36;61448.50;;;8.99;100.00
50430;BME280;36359;41.556;-8.418;2023-12-20T03:21:03;61449.09;;;8.94;100.00
50430;BME280;36359;41.556;-8.418;2023-12-20T03:23:29;61444.28;;;8.90;100.00
50430;BME280;36359;41.556;-8.418;2023-12-20T03:25:56;61446.41;;;8.92;100.00
50430;BME280;36359;41.556;-8.418;2023-12-20T03:28:22;61456.50;;;9.04;100.00
50430;BME280;36359;41.556;-8.418;2023-12-20T03:30:49;61501.75;;;9.47;100.00
50430;BME280;36359;41.556;-8.418;2023-12-20T03:33:15;61489.50;;;9.36;100.00
50430;BME280;36359;41.556;-8.418;2023-12-20T03:35:40;61476.19;;;9.23;100.00
50430;BME280;36359;41.556;-8.418;2023-12-20T03:38:06;61467.19;;;9.09;100.00
50430;BME280;36359;41.556;-8.418;2023-12-20T03:40:32;61459.72;;;9.04;100.00
50430;BME280;36359;41.556;-8.418;2023-12-20T03:42:58;61478.84;;;9.25;100.00
50430;BME280;36359;41.556;-8.418;2023-12-20T03:45:24;61474.09;;;9.18;100.00
50430;BME280;36359;41.556;-8.418;2023-12-20T03:47:50;61473.53;;;9.20;100.00
50430;BME280;36359;41.556;-8.418;2023-12-20T03:50:23;61488.44;;;9.32;100.00
50430;BME280;36359;41.556;-8.418;2023-12-20T03:52:48;61473.53;;;9.20;100.00
50430;BME280;36359;41.556;-8.418;2023-12-20T03:55:15;61491.69;;;9.32;100.00
50430;BME280;36359;41.556;-8.418;2023-12-20T03:57:40;61472.47;;;9.19;100.00
50430;BME280;36359;41.556;-8.418;2023-12-20T04:00:10;61459.72;;;9.02;100.00
50430;BME280;36359;41.556;-8.418;2023-12-20T04:02:39;61445.34;;;8.91;100.00
50430;BME280;36359;41.556;-8.418;2023-12-20T04:05:06;61460.78;;;9.05;100.00
50430;BME280;36359;41.556;-8.418;2023-12-20T04:07:32;61457.56;;;9.07;100.00
50430;BME280;36359;41.556;-8.418;2023-12-20T04:09:58;61475.69;;;9.20;100.00
50430;BME280;36359;41.556;-8.418;2023-12-20T04:12:23;61453.88;;;8.99;100.00
50430;BME280;36359;41.556;-8.418;2023-12-20T04:14:49;61445.34;;;8.91;100.00
50430;BME280;36359;41.556;-8.418;2023-12-20T04:17:16;61452.28;;;8.95;100.00
50430;BME280;36359;41.556;-8.418;2023-12-20T04:19:42;61436.31;;;8.79;100.00
50430;BME280;36359;41.556;-8.418;2023-12-20T04:22:08;61425.16;;;8.69;100.00
50430;BME280;36359;41.556;-8.418;2023-12-20T04:24:34;61412.38;;;8.59;100.00
50430;BME280;36359;41.556;-8.418;2023-12-20T04:27:01;61452.31;;;8.92;100.00
50430;BME280;36359;41.556;-8.418;2023-12-20T04:29:26;61482.59;;;9.26;100.00
50430;BME280;36359;41.556;-8.418;2023-12-20T04:31:52;61533.72;;;9.75;100.00
50430;BME280;36359;41.556;-8.418;2023-12-20T04:34:18;61540.66;;;9.80;100.00
50430;BME280;36359;41.556;-8.418;2023-12-20T04:36:44;61535.88;;;9.75;100.00
50430;BME280;36359;41.556;-8.418;2023-12-20T04:39:11;61587.53;;;10.27;100.00
50430;BME280;36359;41.556;-8.418;2023-12-20T04:41:36;61564.09;;;10.02;100.00
50430;BME280;36359;41.556;-8.418;2023-12-20T04:44:02;61564.59;;;10.05;100.00
50430;BME280;36359;41.556;-8.418;2023-12-20T04:46:28;61538.50;;;9.83;100.00
50430;BME280;36359;41.556;-8.418;2023-12-20T04:48:54;61555.53;;;9.99;100.00
50430;BME280;36359;41.556;-8.418;2023-12-20T04:51:19;61548.63;;;9.90;100.00
50430;BME280;36359;41.556;-8.418;2023-12-20T04:53:45;61561.91;;;10.05;100.00
50430;BME280;36359;41.556;-8.418;2023-12-20T04:56:11;61589.66;;;10.29;100.00
50430;BME280;36359;41.556;-8.418;2023-12-20T04:58:37;61583.22;;;10.26;100.00
50430;BME280;36359;41.556;-8.418;2023-12-20T05:01:04;61590.72;;;10.33;100.00
50430;BME280;36359;41.556;-8.418;2023-12-20T05:03:31;61614.69;;;10.56;100.00
50430;BME280;36359;41.556;-8.418;2023-12-20T05:05:56;61578.97;;;10.21;100.00
50430;BME280;36359;41.556;-8.418;2023-12-20T05:08:22;61576.31;;;10.16;100.00
50430;BME280;36359;41.556;-8.418;2023-12-20T05:10:48;61569.38;;;10.12;100.00
50430;BME280;36359;41.556;-8.418;2023-12-20T05:13:14;61546.50;;;9.88;100.00
50430;BME280;36359;41.556;-8.418;2023-12-20T05:15:40;61534.78;;;9.76;100.00
50430;BME280;36359;41.556;-8.418;2023-12-20T05:18:05;61519.31;;;9.64;100.00
50430;BME280;36359;41.556;-8.418;2023-12-20T05:20:31;61548.63;;;9.90;100.00
50430;BME280;36359;41.556;-8.418;2023-12-20T05:22:57;61557.66;;;10.01;100.00
50430;BME280;36359;41.556;-8.418;2023-12-20T05:25:23;61530.50;;;9.75;100.00
50430;BME280;36359;41.556;-8.418;2023-12-20T05:27:48;61508.72;;;9.49;100.00
50430;BME280;36359;41.556;-8.418;2023-12-20T05:30:14;61497.00;;;9.38;100.00
50430;BME280;36359;41.556;-8.418;2023-12-20T05:32:40;61517.75;;;9.60;100.00
50430;BME280;36359;41.556;-8.418;2023-12-20T05:35:06;61521.97;;;9.67;100.00
50430;BME280;36359;41.556;-8.418;2023-12-20T05:37:31;61523.59;;;9.68;100.00
50430;BME280;36359;41.556;-8.418;2023-12-20T05:39:57;61531.56;;;9.76;100.00
50430;BME280;36359;41.556;-8.418;2023-12-20T05:42:23;61525.19;;;9.67;100.00
50430;BME280;36359;41.556;-8.418;2023-12-20T05:44:48;61506.00;;;9.51;100.00
50430;BME280;36359;41.556;-8.418;2023-12-20T05:47:14;61507.63;;;9.50;100.00
50430;BME280;36359;41.556;-8.418;2023-12-20T05:49:40;61512.94;;;9.58;100.00
50430;BME280;36359;41.556;-8.418;2023-12-20T05:52:06;61511.34;;;9.54;100.00
50430;BME280;36359;41.556;-8.418;2023-12-20T05:54:32;61482.06;;;9.28;100.00
50430;BME280;36359;41.556;-8.418;2023-12-20T05:56:57;61502.31;;;9.45;100.00
50430;BME280;36359;41.556;-8.418;2023-12-20T05:59:23;61509.75;;;9.52;100.00
50430;BME280;36359;41.556;-8.418;2023-12-20T06:01:49;61536.41;;;9.75;100.00
50430;BME280;36359;41.556;-8.418;2023-12-20T06:04:15;61638.66;;;10.79;100.00
50430;BME280;36359;41.556;-8.418;2023-12-20T06:06:42;61644.03;;;10.81;100.00
50430;BME280;36359;41.556;-8.418;2023-12-20T06:09:08;61639.25;;;10.77;100.00
50430;BME280;36359;41.556;-8.418;2023-12-20T06:11:34;61622.69;;;10.63;100.00
50430;BME280;36359;41.556;-8.418;2023-12-20T06:13:59;61601.41;;;10.38;100.00
50430;BME280;36359;41.556;-8.418;2023-12-20T06:16:25;61608.31;;;10.47;100.00
50430;BME280;36359;41.556;-8.418;2023-12-20T06:18:51;61586.97;;;10.29;100.00
50430;BME280;36359;41.556;-8.418;2023-12-20T06:21:16;61575.78;;;10.18;100.00
50430;BME280;36359;41.556;-8.418;2023-12-20T06:23:42;61589.09;;;10.31;100.00
50430;BME280;36359;41.556;-8.418;2023-12-20T06:26:08;61595.53;;;10.35;100.00
50430;BME280;36359;41.556;-8.418;2023-12-20T06:28:34;61598.16;;;10.40;100.00
50430;BME280;36359;41.556;-8.418;2023-12-20T06:30:59;61599.22;;;10.41;100.00
50430;BME280;36359;41.556;-8.418;2023-12-20T06:33:26;61618.94;;;10.60;100.00
50430;BME280;36359;41.556;-8.418;2023-12-20T06:35:52;61620.03;;;10.58;100.00
50430;BME280;36359;41.556;-8.418;2023-12-20T06:38:18;61599.22;;;10.41;100.00
50430;BME280;36359;41.556;-8.418;2023-12-20T06:40:44;61634.97;;;10.73;100.00
50430;BME280;36359;41.556;-8.418;2023-12-20T06:43:12;61622.16;;;10.60;100.00
50430;BME280;36359;41.556;-8.418;2023-12-20T06:45:38;61627.53;;;10.60;100.00
50430;BME280;36359;41.556;-8.418;2023-12-20T06:48:04;61613.63;;;10.52;100.00
50430;BME280;36359;41.556;-8.418;2023-12-20T06:50:29;61631.22;;;10.69;100.00
50430;BME280;36359;41.556;-8.418;2023-12-20T06:52:55;61622.16;;;10.60;100.00
50430;BME280;36359;41.556;-8.418;2023-12-20T06:55:21;61626.94;;;10.67;100.00
50430;BME280;36359;41.556;-8.418;2023-12-20T06:57:46;61630.69;;;10.68;100.00
50430;BME280;36359;41.556;-8.418;2023-12-20T07:00:13;61642.94;;;10.83;100.00
50430;BME280;36359;41.556;-8.418;2023-12-20T07:02:38;61622.16;;;10.60;100.00
50430;BME280;36359;41.556;-8.418;2023-12-20T07:05:04;61656.28;;;10.93;100.00
50430;BME280;36359;41.556;-8.418;2023-12-20T07:07:30;61649.34;;;10.89;100.00
50430;BME280;36359;41.556;-8.418;2023-12-20T07:09:56;61635.47;;;10.76;100.00
50430;BME280;36359;41.556;-8.418;2023-12-20T07:12:22;61663.25;;;10.97;100.00
50430;BME280;36359;41.556;-8.418;2023-12-20T07:14:48;61661.06;;;11.00;100.00
50430;BME280;36359;41.556;-8.418;2023-12-20T07:17:13;61647.75;;;10.85;100.00
50430;BME280;36359;41.556;-8.418;2023-12-20T07:19:41;61653.06;;;10.93;100.00
50430;BME280;36359;41.556;-8.418;2023-12-20T07:22:07;61660.00;;;10.99;100.00
50430;BME280;36359;41.556;-8.418;2023-12-20T07:24:33;61646.66;;;10.86;100.00
50430;BME280;36359;41.556;-8.418;2023-12-20T07:27:02;61631.75;;;10.72;100.00
50430;BME280;36359;41.556;-8.418;2023-12-20T07:29:28;61648.25;;;10.88;100.00
50430;BME280;36359;41.556;-8.418;2023-12-20T07:31:54;61637.09;;;10.75;100.00
50430;BME280;36359;41.556;-8.418;2023-12-20T07:34:22;61649.34;;;10.89;100.00
50430;BME280;36359;41.556;-8.418;2023-12-20T07:36:48;61645.06;;;10.85;100.00
50430;BME280;36359;41.556;-8.418;2023-12-20T07:39:14;61640.81;;;10.81;100.00
50430;BME280;36359;41.556;-8.418;2023-12-20T07:41:40;61628.59;;;10.64;100.00
50430;BME280;36359;41.556;-8.418;2023-12-20T07:44:06;61648.81;;;10.88;100.00
50430;BME280;36359;41.556;-8.418;2023-12-20T07:46:32;61654.16;;;10.91;100.00
50430;BME280;36359;41.556;-8.418;2023-12-20T07:48:58;61644.56;;;10.82;100.00
50430;BME280;36359;41.556;-8.418;2023-12-20T07:51:23;61639.25;;;10.77;100.00
50430;BME280;36359;41.556;-8.418;2023-12-20T07:53:49;61642.41;;;10.82;100.00
50430;BME280;36359;41.556;-8.418;2023-12-20T07:56:16;61608.31;;;10.47;100.00
50430;BME280;36359;41.556;-8.418;2023-12-20T07:58:42;61609.91;;;10.51;100.00
50430;BME280;36359;41.556;-8.418;2023-12-20T08:01:08;61668.00;;;11.07;100.00
50430;BME280;36359;41.556;-8.418;2023-12-20T08:03:34;61648.81;;;10.86;100.00
50430;BME280;36359;41.556;-8.418;2023-12-20T08:06:00;61679.22;;;11.15;100.00
50430;BME280;36359;41.556;-8.418;2023-12-20T08:08:26;61660.56;;;10.97;100.00
50430;BME280;36359;41.556;-8.418;2023-12-20T08:10:51;61666.38;;;11.05;100.00
50430;BME280;36359;41.556;-8.418;2023-12-20T08:13:17;61674.41;;;11.10;100.00
50430;BME280;36359;41.556;-8.418;2023-12-20T08:15:43;61642.44;;;10.80;100.00
50430;BME280;36359;41.556;-8.418;2023-12-20T08:18:09;61722.94;;;11.59;100.00
50430;BME280;36359;41.556;-8.418;2023-12-20T08:20:34;61719.72;;;11.56;100.00
50430;BME280;36359;41.556;-8.418;2023-12-20T08:23:00;61666.38;;;11.05;100.00
50430;BME280;36359;41.556;-8.418;2023-12-20T08:25:26;61626.94;;;10.67;100.00
50430;BME280;36359;41.556;-8.418;2023-12-20T08:27:53;61590.16;;;10.32;100.00
50430;BME280;36359;41.556;-8.418;2023-12-20T08:30:18;61670.66;;;11.09;100.00
50430;BME280;36359;41.556;-8.418;2023-12-20T08:32:50;61679.19;;;11.18;100.00
50430;BME280;36359;41.556;-8.418;2023-12-20T08:35:16;61706.41;;;11.41;100.00
50430;BME280;36359;41.556;-8.418;2023-12-20T08:37:42;61677.63;;;11.13;100.00
50430;BME280;36359;41.556;-8.418;2023-12-20T08:40:08;61661.59;;;11.01;100.00
50430;BME280;36359;41.556;-8.418;2023-12-20T08:42:34;61654.66;;;10.94;100.00
50430;BME280;36359;41.556;-8.418;2023-12-20T08:44:59;61647.22;;;10.84;100.00
50430;BME280;36359;41.556;-8.418;2023-12-20T08:47:25;61661.59;;;11.01;100.00
50430;BME280;36359;41.556;-8.418;2023-12-20T08:49:52;61652.56;;;10.89;100.00
50430;BME280;36359;41.556;-8.418;2023-12-20T08:52:23;61644.00;;;10.84;100.00
50430;BME280;36359;41.556;-8.418;2023-12-20T08:54:50;61655.19;;;10.97;100.00
50430;BME280;36359;41.556;-8.418;2023-12-20T08:57:20;61679.75;;;11.16;100.00
50430;BME280;36359;41.556;-8.418;2023-12-20T08:59:47;61707.47;;;11.45;100.00
50430;BME280;36359;41.556;-8.418;2023-12-20T09:02:13;61730.44;;;11.62;100.00
50430;BME280;36359;41.556;-8.418;2023-12-20T09:04:39;61710.66;;;11.48;100.00
50430;BME280;36359;41.556;-8.418;2023-12-20T09:07:05;61677.06;;;11.16;100.00
50430;BME280;36359;41.556;-8.418;2023-12-20T09:09:31;61634.97;;;10.73;100.00
50430;BME280;36359;41.556;-8.418;2023-12-20T09:11:58;61625.34;;;10.66;100.00
50430;BME280;36359;41.556;-8.418;2023-12-20T09:14:23;61628.56;;;10.66;100.00
50430;BME280;36359;41.556;-8.418;2023-12-20T09:16:49;61618.94;;;10.60;100.00
50430;BME280;36359;41.556;-8.418;2023-12-20T09:19:17;61642.94;;;10.83;100.00
50430;BME280;36359;41.556;-8.418;2023-12-20T09:21:43;61648.25;;;10.88;100.00
50430;BME280;36359;41.556;-8.418;2023-12-20T09:24:09;61661.59;;;11.01;100.00
50430;BME280;36359;41.556;-8.418;2023-12-20T09:26:34;61660.00;;;10.99;100.00
50430;BME280;36359;41.556;-8.418;2023-12-20T09:29:00;61648.81;;;10.86;100.00
50430;BME280;36359;41.556;-8.418;2023-12-20T09:31:26;61634.97;;;10.73;100.00
50430;BME280;36359;41.556;-8.418;2023-12-20T09:33:52;61624.81;;;10.68;100.00
50430;BME280;36359;41.556;-8.418;2023-12-20T09:36:18;61625.38;;;10.63;100.00
50430;BME280;36359;41.556;-8.418;2023-12-20T09:38:43;61632.78;;;10.76;100.00
50430;BME280;36359;41.556;-8.418;2023-12-20T09:41:09;61638.13;;;10.78;100.00
50430;BME280;36359;41.556;-8.418;2023-12-20T09:43:38;61647.22;;;10.84;100.00
50430;BME280;36359;41.556;-8.418;2023-12-20T09:46:06;61641.88;;;10.82;100.00
50430;BME280;36359;41.556;-8.418;2023-12-20T09:48:36;61638.16;;;10.76;98.89
50430;BME280;36359;41.556;-8.418;2023-12-20T09:51:02;61642.41;;;10.82;99.83
50430;BME280;36359;41.556;-8.418;2023-12-20T09:53:29;61627.50;;;10.68;99.32
50430;BME280;36359;41.556;-8.418;2023-12-20T09:55:59;61638.66;;;10.81;98.37
50430;BME280;36359;41.556;-8.418;2023-12-20T09:58:28;61631.22;;;10.72;96.88
50430;BME280;36359;41.556;-8.418;2023-12-20T10:00:55;61660.00;;;10.97;98.30
50430;BME280;36359;41.556;-8.418;2023-12-20T10:03:24;61660.00;;;10.99;97.27
50430;BME280;36359;41.556;-8.418;2023-12-20T10:05:54;61657.84;;;11.00;95.99
50430;BME280;36359;41.556;-8.418;2023-12-20T10:08:22;61653.06;;;10.93;95.86
50430;BME280;36359;41.556;-8.418;2023-12-20T10:10:48;61667.50;;;11.04;96.53
50430;BME280;36359;41.556;-8.418;2023-12-20T10:13:15;61664.81;;;11.01;96.97
50430;BME280;36359;41.556;-8.418;2023-12-20T10:15:41;61667.47;;;11.06;96.29
50430;BME280;36359;41.556;-8.418;2023-12-20T10:18:07;61675.97;;;11.14;95.35
50430;BME280;36359;41.556;-8.418;2023-12-20T10:20:33;61693.59;;;11.31;95.01
50430;BME280;36359;41.556;-8.418;2023-12-20T10:22:59;61686.69;;;11.22;95.54
50430;BME280;36359;41.556;-8.418;2023-12-20T10:25:25;61677.06;;;11.16;93.81
50430;BME280;36359;41.556;-8.418;2023-12-20T10:28:15;61694.13;;;11.32;93.30
50430;BME280;36359;41.556;-8.418;2023-12-20T10:30:45;61690.38;;;11.28;94.40
50430;BME280;36359;41.556;-8.418;2023-12-20T10:33:11;61698.41;;;11.36;93.51
50430;BME280;36359;41.556;-8.418;2023-12-20T10:35:38;61705.84;;;11.43;93.48
50430;BME280;36359;41.556;-8.418;2023-12-20T10:38:06;61698.41;;;11.36;93.94
50430;BME280;36359;41.556;-8.418;2023-12-20T10:40:35;61705.84;;;11.43;93.04
50430;BME280;36359;41.556;-8.418;2023-12-20T10:43:05;61715.44;;;11.52;94.62
50430;BME280;36359;41.556;-8.418;2023-12-20T10:45:31;61711.19;;;11.48;92.63
50430;BME280;36359;41.556;-8.418;2023-12-20T10:47:58;61704.78;;;11.42;92.51
50430;BME280;36359;41.556;-8.418;2023-12-20T10:50:30;61699.97;;;11.37;90.76
50430;BME280;36359;41.556;-8.418;2023-12-20T10:52:57;61709.59;;;11.47;90.34
50430;BME280;36359;41.556;-8.418;2023-12-20T10:55:23;61713.34;;;11.50;91.61
50430;BME280;36359;41.556;-8.418;2023-12-20T10:57:54;61717.03;;;11.56;90.75
50430;BME280;36359;41.556;-8.418;2023-12-20T11:00:25;61763.50;;;11.98;91.98
50430;BME280;36359;41.556;-8.418;2023-12-20T11:02:51;61738.41;;;11.74;89.62
50430;BME280;36359;41.556;-8.418;2023-12-20T11:07:59;61751.19;;;11.89;90.11
50430;BME280;36359;41.556;-8.418;2023-12-20T11:15:30;61769.38;;;12.01;88.96
50430;BME280;36359;41.556;-8.418;2023-12-20T11:17:56;61769.34;;;12.07;89.17
50430;BME280;36359;41.556;-8.418;2023-12-20T11:20:38;61765.63;;;12.03;91.27
50430;BME280;36359;41.556;-8.418;2023-12-20T11:23:04;61769.91;;;12.02;89.06
50430;BME280;36359;41.556;-8.418;2023-12-20T11:25:45;61754.94;;;11.90;89.54
50430;BME280;36359;41.556;-8.418;2023-12-20T11:28:11;61770.97;;;12.05;89.26
50430;BME280;36359;41.556;-8.418;2023-12-20T11:30:50;61762.38;;;12.00;87.80
50430;BME280;36359;41.556;-8.418;2023-12-20T11:33:21;61766.16;;;12.01;87.96
50430;BME280;36359;41.556;-8.418;2023-12-20T11:35:47;61780.59;;;12.12;87.69
50430;BME280;36359;41.556;-8.418;2023-12-20T11:38:14;61776.81;;;12.11;87.57
50430;BME280;36359;41.556;-8.418;2023-12-20T11:40:41;61781.13;;;12.15;85.12
50430;BME280;36359;41.556;-8.418;2023-12-20T11:43:07;61777.91;;;12.12;85.21
50430;BME280;36359;41.556;-8.418;2023-12-20T11:45:33;61774.16;;;12.09;87.06
50430;BME280;36359;41.556;-8.418;2023-12-20T11:48:01;61780.50;;;12.20;85.08
50430;BME280;36359;41.556;-8.418;2023-12-20T11:50:28;61767.75;;;12.02;85.12
50430;BME280;36359;41.556;-8.418;2023-12-20T11:52:55;61773.59;;;12.11;85.61
50430;BME280;36359;41.556;-8.418;2023-12-20T11:55:22;61784.84;;;12.19;84.83
50430;BME280;36359;41.556;-8.418;2023-12-20T11:57:47;61789.63;;;12.23;83.93
50430;BME280;36359;41.556;-8.418;2023-12-20T12:00:14;61801.34;;;12.37;83.07
50430;BME280;36359;41.556;-8.418;2023-12-20T12:02:40;61803.53;;;12.34;82.90
50430;BME280;36359;41.556;-8.418;2023-12-20T12:05:06;61801.38;;;12.35;82.92
50430;BME280;36359;41.556;-8.418;2023-12-20T12:07:34;61803.53;;;12.37;81.97
50430;BME280;36359;41.556;-8.418;2023-12-20T12:10:00;61809.94;;;12.43;82.92
50430;BME280;36359;41.556;-8.418;2023-12-20T12:12:26;61807.25;;;12.40;83.68
50430;BME280;36359;41.556;-8.418;2023-12-20T12:14:53;61808.34;;;12.41;83.70
50430;BME280;36359;41.556;-8.418;2023-12-20T12:17:20;61791.25;;;12.25;81.70
50430;BME280;36359;41.556;-8.418;2023-12-20T12:19:45;61793.38;;;12.27;83.04
50430;BME280;36359;41.556;-8.418;2023-12-20T12:22:13;61799.25;;;12.33;84.29
50430;BME280;36359;41.556;-8.418;2023-12-20T12:24:40;61798.72;;;12.32;83.30
50430;BME280;36359;41.556;-8.418;2023-12-20T12:27:06;61808.34;;;12.41;83.22
50430;BME280;36359;41.556;-8.418;2023-12-20T12:29:33;61806.72;;;12.40;82.26
50430;BME280;36359;41.556;-8.418;2023-12-20T12:32:00;61816.31;;;12.52;83.11
50430;BME280;36359;41.556;-8.418;2023-12-20T12:34:29;61853.22;;;12.79;83.37
50430;BME280;36359;41.556;-8.418;2023-12-20T12:36:56;61843.03;;;12.75;81.13
50430;BME280;36359;41.556;-8.418;2023-12-20T12:39:23;61840.38;;;12.72;80.55
50430;BME280;36359;41.556;-8.418;2023-12-20T12:41:50;61843.56;;;12.75;80.34
50430;BME280;36359;41.556;-8.418;2023-12-20T12:44:16;61848.91;;;12.80;80.52
50430;BME280;36359;41.556;-8.418;2023-12-20T12:46:46;61841.41;;;12.73;81.07
50430;BME280;36359;41.556;-8.418;2023-12-20T12:49:12;61840.38;;;12.72;81.95
50430;BME280;36359;41.556;-8.418;2023-12-20T12:51:38;61834.50;;;12.66;80.10